PRRNA SBRJ-SBRP
Flight info
| Callsign | PRRNA |
|---|---|
| Flight time | 1h 54m |
| Altitude | 14000 |
| Route | ESORU DCT ARSAX |
| Aircraft | DA62/L-SDFGRY/C |
Departure
| Time | 2026-05-03 23:03 |
|---|---|
| Airport | Santos Dumont Airport (SBRJ) |
Arrival
| Time | 2026-05-04 00:58 |
|---|---|
| Airport | Leite Lopes Airport (SBRP) |
| Time | Latitude | Longitude | Altitude | Speed | Heading |
|---|---|---|---|---|---|
| 2026-05-03 22:51 | -22.90998 | -43.16495 | 16 ft | 0 kts | 174° |
| 2026-05-03 22:55 | -22.91001 | -43.16495 | 16 ft | 2 kts | 174° |
| 2026-05-03 22:55 | -22.91005 | -43.16495 | 16 ft | 0 kts | 174° |
| 2026-05-03 22:56 | -22.91015 | -43.16492 | 16 ft | 3 kts | 149° |
| 2026-05-03 22:56 | -22.91031 | -43.16459 | 16 ft | 6 kts | 162° |
| 2026-05-03 22:56 | -22.91074 | -43.16454 | 16 ft | 6 kts | 178° |
| 2026-05-03 22:56 | -22.91122 | -43.16452 | 16 ft | 5 kts | 175° |
| 2026-05-03 22:57 | -22.91176 | -43.16448 | 16 ft | 9 kts | 177° |
| 2026-05-03 22:57 | -22.91245 | -43.16445 | 16 ft | 9 kts | 177° |
| 2026-05-03 22:57 | -22.91298 | -43.16440 | 16 ft | 7 kts | 176° |
| 2026-05-03 22:57 | -22.91340 | -43.16437 | 16 ft | 5 kts | 175° |
| 2026-05-03 22:58 | -22.91372 | -43.16434 | 16 ft | 4 kts | 173° |
| 2026-05-03 22:58 | -22.91396 | -43.16431 | 16 ft | 3 kts | 177° |
| 2026-05-03 22:58 | -22.91404 | -43.16431 | -11 ft | 0 kts | 178° |
| 2026-05-03 22:58 | -22.91407 | -43.16431 | -11 ft | 1 kts | 180° |
| 2026-05-03 22:59 | -22.91425 | -43.16432 | 16 ft | 0 kts | 182° |
| 2026-05-03 22:59 | -22.91431 | -43.16432 | 16 ft | 3 kts | 181° |
| 2026-05-03 22:59 | -22.91465 | -43.16431 | 16 ft | 4 kts | 171° |
| 2026-05-03 22:59 | -22.91483 | -43.16420 | 16 ft | 0 kts | 139° |
| 2026-05-03 23:00 | -22.91483 | -43.16419 | 16 ft | 0 kts | 139° |
| 2026-05-03 23:01 | -22.91486 | -43.16417 | 16 ft | 0 kts | 139° |
| 2026-05-03 23:01 | -22.91498 | -43.16406 | 15 ft | 6 kts | 138° |
| 2026-05-03 23:02 | -22.91547 | -43.16357 | 13 ft | 12 kts | 137° |
| 2026-05-03 23:02 | -22.91603 | -43.16297 | 14 ft | 9 kts | 123° |
| 2026-05-03 23:02 | -22.91538 | -43.16253 | 14 ft | 28 kts | 1° |
| 2026-05-03 23:02 | -22.91133 | -43.16280 | 15 ft | 83 kts | 356° |
| 2026-05-03 23:03 | -22.90449 | -43.16310 | 89 ft | 108 kts | 355° |
| 2026-05-03 23:03 | -22.89700 | -43.16355 | 369 ft | 109 kts | 356° |
| 2026-05-03 23:03 | -22.88928 | -43.16359 | 631 ft | 113 kts | 12° |
| 2026-05-03 23:03 | -22.88304 | -43.15837 | 909 ft | 117 kts | 56° |
| 2026-05-03 23:04 | -22.88104 | -43.14987 | 1187 ft | 119 kts | 83° |
| 2026-05-03 23:04 | -22.87972 | -43.14087 | 1466 ft | 122 kts | 82° |
| 2026-05-03 23:04 | -22.87840 | -43.13140 | 1696 ft | 131 kts | 82° |
| 2026-05-03 23:04 | -22.87704 | -43.12155 | 2043 ft | 133 kts | 83° |
| 2026-05-03 23:05 | -22.87572 | -43.11158 | 2396 ft | 134 kts | 89° |
| 2026-05-03 23:05 | -22.87698 | -43.10164 | 2755 ft | 134 kts | 105° |
| 2026-05-03 23:05 | -22.87836 | -43.09161 | 3134 ft | 135 kts | 105° |
| 2026-05-03 23:05 | -22.87987 | -43.08147 | 3500 ft | 136 kts | 105° |
| 2026-05-03 23:06 | -22.88137 | -43.07127 | 3862 ft | 137 kts | 105° |
| 2026-05-03 23:06 | -22.88287 | -43.06101 | 4249 ft | 139 kts | 105° |
| 2026-05-03 23:06 | -22.88612 | -43.05143 | 4594 ft | 133 kts | 134° |
| 2026-05-03 23:06 | -22.89269 | -43.04480 | 4925 ft | 126 kts | 159° |
| 2026-05-03 23:07 | -22.90069 | -43.04198 | 5270 ft | 119 kts | 177° |
| 2026-05-03 23:07 | -22.90893 | -43.04043 | 5631 ft | 121 kts | 176° |
| 2026-05-03 23:07 | -22.91726 | -43.03882 | 5948 ft | 122 kts | 176° |
| 2026-05-03 23:07 | -22.92553 | -43.03726 | 6264 ft | 123 kts | 177° |
| 2026-05-03 23:08 | -22.93407 | -43.03656 | 6569 ft | 120 kts | 194° |
| 2026-05-03 23:08 | -22.94173 | -43.03927 | 6927 ft | 117 kts | 212° |
| 2026-05-03 23:08 | -22.94817 | -43.04464 | 7312 ft | 117 kts | 221° |
| 2026-05-03 23:08 | -22.95460 | -43.05029 | 7686 ft | 118 kts | 220° |
| 2026-05-03 23:09 | -22.96085 | -43.05597 | 8026 ft | 119 kts | 227° |
| 2026-05-03 23:09 | -22.96370 | -43.06435 | 8344 ft | 122 kts | 260° |
| 2026-05-03 23:09 | -22.96250 | -43.07369 | 8637 ft | 127 kts | 276° |
| 2026-05-03 23:09 | -22.96073 | -43.08312 | 8935 ft | 128 kts | 275° |
| 2026-05-03 23:10 | -22.95895 | -43.09263 | 9265 ft | 129 kts | 275° |
| 2026-05-03 23:10 | -22.95718 | -43.10218 | 9609 ft | 130 kts | 275° |
| 2026-05-03 23:10 | -22.95537 | -43.11188 | 9947 ft | 131 kts | 275° |
| 2026-05-03 23:10 | -22.95356 | -43.12167 | 10272 ft | 133 kts | 275° |
| 2026-05-03 23:11 | -22.95174 | -43.13149 | 10593 ft | 133 kts | 276° |
| 2026-05-03 23:11 | -22.94991 | -43.14133 | 10924 ft | 133 kts | 276° |
| 2026-05-03 23:11 | -22.94808 | -43.15121 | 11245 ft | 134 kts | 276° |
| 2026-05-03 23:11 | -22.94624 | -43.16111 | 11568 ft | 134 kts | 276° |
| 2026-05-03 23:12 | -22.94440 | -43.17100 | 11902 ft | 134 kts | 276° |
| 2026-05-03 23:12 | -22.94255 | -43.18096 | 12224 ft | 135 kts | 276° |
| 2026-05-03 23:12 | -22.94069 | -43.19099 | 12540 ft | 135 kts | 277° |
| 2026-05-03 23:12 | -22.93884 | -43.20097 | 12843 ft | 136 kts | 277° |
| 2026-05-03 23:13 | -22.93697 | -43.21103 | 13126 ft | 136 kts | 277° |
| 2026-05-03 23:13 | -22.93510 | -43.22106 | 13393 ft | 136 kts | 278° |
| 2026-05-03 23:13 | -22.93322 | -43.23115 | 13655 ft | 137 kts | 277° |
| 2026-05-03 23:13 | -22.93136 | -43.24115 | 13912 ft | 137 kts | 277° |
| 2026-05-03 23:14 | -22.92945 | -43.25143 | 14141 ft | 137 kts | 277° |
| 2026-05-03 23:14 | -22.92751 | -43.26188 | 14212 ft | 148 kts | 278° |
| 2026-05-03 23:14 | -22.92541 | -43.27322 | 14223 ft | 158 kts | 278° |
| 2026-05-03 23:14 | -22.92318 | -43.28519 | 14224 ft | 166 kts | 278° |
| 2026-05-03 23:15 | -22.92085 | -43.29760 | 14224 ft | 171 kts | 278° |
| 2026-05-03 23:15 | -22.91847 | -43.31036 | 14224 ft | 174 kts | 278° |
| 2026-05-03 23:15 | -22.91585 | -43.32322 | 14222 ft | 177 kts | 284° |
| 2026-05-03 23:15 | -22.91004 | -43.33518 | 14220 ft | 182 kts | 302° |
| 2026-05-03 23:16 | -22.90162 | -43.34559 | 14223 ft | 184 kts | 307° |
| 2026-05-03 23:16 | -22.89311 | -43.35603 | 14222 ft | 185 kts | 307° |
| 2026-05-03 23:16 | -22.88477 | -43.36632 | 14223 ft | 185 kts | 307° |
| 2026-05-03 23:16 | -22.87624 | -43.37679 | 14218 ft | 185 kts | 307° |
| 2026-05-03 23:17 | -22.86776 | -43.38718 | 14217 ft | 184 kts | 307° |
| 2026-05-03 23:17 | -22.85926 | -43.39762 | 14219 ft | 184 kts | 307° |
| 2026-05-03 23:17 | -22.85079 | -43.40801 | 14220 ft | 184 kts | 307° |
| 2026-05-03 23:17 | -22.84229 | -43.41843 | 14219 ft | 184 kts | 307° |
| 2026-05-03 23:18 | -22.83379 | -43.42885 | 14216 ft | 184 kts | 307° |
| 2026-05-03 23:18 | -22.82819 | -43.44080 | 14222 ft | 177 kts | 273° |
| 2026-05-03 23:18 | -22.83028 | -43.45383 | 14222 ft | 176 kts | 254° |
| 2026-05-03 23:18 | -22.83342 | -43.46661 | 14222 ft | 176 kts | 255° |
| 2026-05-03 23:19 | -22.83602 | -43.47959 | 14222 ft | 176 kts | 258° |
| 2026-05-03 23:19 | -22.83823 | -43.49266 | 14214 ft | 176 kts | 259° |
| 2026-05-03 23:19 | -22.84038 | -43.50573 | 14222 ft | 177 kts | 259° |
| 2026-05-03 23:19 | -22.84256 | -43.51886 | 14222 ft | 177 kts | 259° |
| 2026-05-03 23:20 | -22.84474 | -43.53200 | 14220 ft | 177 kts | 259° |
| 2026-05-03 23:20 | -22.84689 | -43.54492 | 14218 ft | 177 kts | 259° |
| 2026-05-03 23:20 | -22.84909 | -43.55815 | 14228 ft | 176 kts | 259° |
| 2026-05-03 23:20 | -22.85127 | -43.57126 | 14227 ft | 177 kts | 259° |
| 2026-05-03 23:21 | -22.85346 | -43.58440 | 14226 ft | 177 kts | 259° |
| 2026-05-03 23:21 | -22.85563 | -43.59752 | 14224 ft | 177 kts | 259° |
| 2026-05-03 23:21 | -22.85781 | -43.61066 | 14217 ft | 177 kts | 259° |
| 2026-05-03 23:21 | -22.85995 | -43.62359 | 14225 ft | 177 kts | 259° |
| 2026-05-03 23:22 | -22.86430 | -43.64979 | 14219 ft | 177 kts | 259° |
| 2026-05-03 23:22 | -22.86647 | -43.66292 | 14217 ft | 177 kts | 259° |
| 2026-05-03 23:22 | -22.86865 | -43.67604 | 14222 ft | 177 kts | 259° |
| 2026-05-03 23:23 | -22.87081 | -43.68913 | 14221 ft | 177 kts | 259° |
| 2026-05-03 23:23 | -22.87297 | -43.70224 | 14222 ft | 177 kts | 259° |
| 2026-05-03 23:23 | -22.87514 | -43.71536 | 14220 ft | 177 kts | 259° |
| 2026-05-03 23:23 | -22.87731 | -43.72849 | 14222 ft | 177 kts | 259° |
| 2026-05-03 23:24 | -22.87948 | -43.74159 | 14224 ft | 177 kts | 259° |
| 2026-05-03 23:24 | -22.88164 | -43.75473 | 14222 ft | 177 kts | 259° |
| 2026-05-03 23:24 | -22.88381 | -43.76789 | 14220 ft | 177 kts | 259° |
| 2026-05-03 23:24 | -22.88597 | -43.78099 | 14221 ft | 177 kts | 259° |
| 2026-05-03 23:25 | -22.88814 | -43.79415 | 14222 ft | 177 kts | 259° |
| 2026-05-03 23:25 | -22.89030 | -43.80727 | 14223 ft | 177 kts | 259° |
| 2026-05-03 23:25 | -22.89247 | -43.82043 | 14221 ft | 177 kts | 259° |
| 2026-05-03 23:25 | -22.89463 | -43.83359 | 14221 ft | 177 kts | 259° |
| 2026-05-03 23:26 | -22.89676 | -43.84658 | 14226 ft | 177 kts | 259° |
| 2026-05-03 23:26 | -22.89893 | -43.85974 | 14225 ft | 177 kts | 259° |
| 2026-05-03 23:26 | -22.90108 | -43.87286 | 14227 ft | 177 kts | 259° |
| 2026-05-03 23:26 | -22.90324 | -43.88603 | 14227 ft | 177 kts | 259° |
| 2026-05-03 23:27 | -22.90540 | -43.89920 | 14231 ft | 177 kts | 259° |
| 2026-05-03 23:27 | -22.90756 | -43.91237 | 14228 ft | 177 kts | 259° |
| 2026-05-03 23:27 | -22.90972 | -43.92555 | 14233 ft | 177 kts | 259° |
| 2026-05-03 23:27 | -22.91188 | -43.93877 | 14233 ft | 178 kts | 259° |
| 2026-05-03 23:28 | -22.91405 | -43.95202 | 14234 ft | 179 kts | 259° |
| 2026-05-03 23:28 | -22.91623 | -43.96527 | 14234 ft | 179 kts | 259° |
| 2026-05-03 23:28 | -22.91840 | -43.97857 | 14233 ft | 179 kts | 259° |
| 2026-05-03 23:28 | -22.92056 | -43.99181 | 14239 ft | 179 kts | 259° |
| 2026-05-03 23:29 | -22.92273 | -44.00513 | 14236 ft | 179 kts | 259° |
| 2026-05-03 23:29 | -22.92491 | -44.01842 | 14236 ft | 179 kts | 259° |
| 2026-05-03 23:29 | -22.92707 | -44.03168 | 14236 ft | 179 kts | 259° |
| 2026-05-03 23:29 | -22.92924 | -44.04498 | 14240 ft | 179 kts | 259° |
| 2026-05-03 23:30 | -22.93139 | -44.05823 | 14237 ft | 178 kts | 259° |
| 2026-05-03 23:30 | -22.93352 | -44.07124 | 14247 ft | 177 kts | 259° |
| 2026-05-03 23:30 | -22.93567 | -44.08447 | 14248 ft | 178 kts | 259° |
| 2026-05-03 23:30 | -22.93782 | -44.09769 | 14247 ft | 178 kts | 259° |
| 2026-05-03 23:31 | -22.93997 | -44.11094 | 14251 ft | 178 kts | 259° |
| 2026-05-03 23:31 | -22.94213 | -44.12420 | 14252 ft | 178 kts | 259° |
| 2026-05-03 23:31 | -22.94430 | -44.13759 | 14250 ft | 179 kts | 259° |
| 2026-05-03 23:31 | -22.94643 | -44.15069 | 14250 ft | 178 kts | 259° |
| 2026-05-03 23:32 | -22.94861 | -44.16410 | 14253 ft | 179 kts | 259° |
| 2026-05-03 23:32 | -22.95073 | -44.17721 | 14256 ft | 179 kts | 259° |
| 2026-05-03 23:32 | -22.95288 | -44.19049 | 14255 ft | 178 kts | 259° |
| 2026-05-03 23:32 | -22.95504 | -44.20378 | 14256 ft | 179 kts | 259° |
| 2026-05-03 23:33 | -22.95720 | -44.21710 | 14252 ft | 179 kts | 259° |
| 2026-05-03 23:33 | -22.95935 | -44.23042 | 14254 ft | 179 kts | 259° |
| 2026-05-03 23:33 | -22.96151 | -44.24373 | 14253 ft | 179 kts | 259° |
| 2026-05-03 23:33 | -22.96365 | -44.25707 | 14250 ft | 179 kts | 259° |
| 2026-05-03 23:34 | -22.96582 | -44.27042 | 14255 ft | 180 kts | 259° |
| 2026-05-03 23:34 | -22.96797 | -44.28378 | 14255 ft | 179 kts | 259° |
| 2026-05-03 23:34 | -22.97013 | -44.29712 | 14255 ft | 179 kts | 259° |
| 2026-05-03 23:34 | -22.97227 | -44.31041 | 14251 ft | 179 kts | 259° |
| 2026-05-03 23:35 | -22.97441 | -44.32374 | 14257 ft | 179 kts | 259° |
| 2026-05-03 23:35 | -22.97656 | -44.33705 | 14259 ft | 179 kts | 259° |
| 2026-05-03 23:35 | -22.97871 | -44.35037 | 14258 ft | 179 kts | 259° |
| 2026-05-03 23:35 | -22.98082 | -44.36351 | 14258 ft | 179 kts | 259° |
| 2026-05-03 23:36 | -22.98298 | -44.37695 | 14262 ft | 179 kts | 259° |
| 2026-05-03 23:36 | -22.98509 | -44.39008 | 14260 ft | 179 kts | 259° |
| 2026-05-03 23:36 | -22.98724 | -44.40339 | 14261 ft | 179 kts | 259° |
| 2026-05-03 23:36 | -22.98937 | -44.41667 | 14266 ft | 179 kts | 259° |
| 2026-05-03 23:37 | -22.99150 | -44.43000 | 14263 ft | 179 kts | 259° |
| 2026-05-03 23:37 | -22.99364 | -44.44333 | 14264 ft | 179 kts | 259° |
| 2026-05-03 23:37 | -22.99577 | -44.45659 | 14256 ft | 178 kts | 259° |
| 2026-05-03 23:37 | -22.99790 | -44.46988 | 14261 ft | 179 kts | 259° |
| 2026-05-03 23:38 | -23.00003 | -44.48318 | 14265 ft | 180 kts | 259° |
| 2026-05-03 23:38 | -23.00217 | -44.49657 | 14265 ft | 179 kts | 259° |
| 2026-05-03 23:38 | -23.00429 | -44.50987 | 14270 ft | 179 kts | 259° |
| 2026-05-03 23:38 | -23.00642 | -44.52317 | 14265 ft | 180 kts | 259° |
| 2026-05-03 23:39 | -23.00857 | -44.53655 | 14262 ft | 180 kts | 259° |
| 2026-05-03 23:39 | -23.01070 | -44.54993 | 14266 ft | 180 kts | 259° |
| 2026-05-03 23:39 | -23.01282 | -44.56325 | 14265 ft | 179 kts | 259° |
| 2026-05-03 23:39 | -23.01496 | -44.57661 | 14266 ft | 179 kts | 259° |
| 2026-05-03 23:40 | -23.01708 | -44.58992 | 14263 ft | 179 kts | 259° |
| 2026-05-03 23:40 | -23.01920 | -44.60329 | 14264 ft | 180 kts | 259° |
| 2026-05-03 23:40 | -23.02135 | -44.61670 | 14269 ft | 180 kts | 259° |
| 2026-05-03 23:40 | -23.02348 | -44.63012 | 14267 ft | 180 kts | 259° |
| 2026-05-03 23:41 | -23.02560 | -44.64344 | 14270 ft | 178 kts | 259° |
| 2026-05-03 23:41 | -23.02771 | -44.65674 | 14264 ft | 180 kts | 260° |
| 2026-05-03 23:41 | -23.02783 | -44.67029 | 14265 ft | 181 kts | 277° |
| 2026-05-03 23:41 | -23.02398 | -44.68329 | 14263 ft | 184 kts | 294° |
| 2026-05-03 23:42 | -23.01659 | -44.69449 | 14258 ft | 186 kts | 308° |
| 2026-05-03 23:42 | -23.00810 | -44.70506 | 14261 ft | 185 kts | 307° |
| 2026-05-03 23:42 | -22.99971 | -44.71564 | 14263 ft | 185 kts | 307° |
| 2026-05-03 23:42 | -22.99126 | -44.72627 | 14264 ft | 186 kts | 307° |
| 2026-05-03 23:43 | -22.98272 | -44.73700 | 14268 ft | 186 kts | 307° |
| 2026-05-03 23:43 | -22.97437 | -44.74750 | 14269 ft | 186 kts | 307° |
| 2026-05-03 23:43 | -22.96589 | -44.75814 | 14267 ft | 186 kts | 307° |
| 2026-05-03 23:43 | -22.96018 | -44.76529 | 14264 ft | 186 kts | 307° |
| 2026-05-03 23:44 | -22.94891 | -44.77947 | 14265 ft | 186 kts | 307° |
| 2026-05-03 23:44 | -22.94055 | -44.78995 | 14264 ft | 186 kts | 307° |
| 2026-05-03 23:44 | -22.93209 | -44.80056 | 14266 ft | 186 kts | 307° |
| 2026-05-03 23:44 | -22.92364 | -44.81117 | 14264 ft | 186 kts | 307° |
| 2026-05-03 23:45 | -22.91518 | -44.82177 | 14268 ft | 186 kts | 307° |
| 2026-05-03 23:45 | -22.90947 | -44.82893 | 14266 ft | 186 kts | 307° |
| 2026-05-03 23:45 | -22.90100 | -44.83955 | 14267 ft | 186 kts | 307° |
| 2026-05-03 23:45 | -22.89265 | -44.85002 | 14264 ft | 186 kts | 307° |
| 2026-05-03 23:46 | -22.88419 | -44.86062 | 14263 ft | 185 kts | 307° |
| 2026-05-03 23:46 | -22.87577 | -44.87118 | 14266 ft | 185 kts | 307° |
| 2026-05-03 23:46 | -22.86734 | -44.88175 | 14266 ft | 185 kts | 307° |
| 2026-05-03 23:46 | -22.85889 | -44.89232 | 14264 ft | 185 kts | 307° |
| 2026-05-03 23:47 | -22.85048 | -44.90285 | 14265 ft | 185 kts | 307° |
| 2026-05-03 23:47 | -22.84208 | -44.91337 | 14266 ft | 184 kts | 307° |
| 2026-05-03 23:47 | -22.83369 | -44.92387 | 14265 ft | 184 kts | 307° |
| 2026-05-03 23:47 | -22.82530 | -44.93437 | 14266 ft | 184 kts | 307° |
| 2026-05-03 23:48 | -22.81691 | -44.94487 | 14264 ft | 184 kts | 307° |
| 2026-05-03 23:48 | -22.80852 | -44.95537 | 14263 ft | 184 kts | 307° |
| 2026-05-03 23:48 | -22.80013 | -44.96586 | 14263 ft | 185 kts | 307° |
| 2026-05-03 23:48 | -22.79171 | -44.97639 | 14264 ft | 185 kts | 307° |
| 2026-05-03 23:49 | -22.78329 | -44.98692 | 14263 ft | 185 kts | 307° |
| 2026-05-03 23:49 | -22.77487 | -44.99744 | 14262 ft | 185 kts | 307° |
| 2026-05-03 23:49 | -22.76646 | -45.00795 | 14261 ft | 184 kts | 307° |
| 2026-05-03 23:49 | -22.75807 | -45.01843 | 14260 ft | 184 kts | 307° |
| 2026-05-03 23:50 | -22.74970 | -45.02888 | 14264 ft | 183 kts | 307° |
| 2026-05-03 23:50 | -22.74135 | -45.03932 | 14260 ft | 183 kts | 307° |
| 2026-05-03 23:50 | -22.73300 | -45.04975 | 14257 ft | 183 kts | 307° |
| 2026-05-03 23:50 | -22.72467 | -45.06014 | 14259 ft | 183 kts | 307° |
| 2026-05-03 23:51 | -22.71634 | -45.07055 | 14257 ft | 183 kts | 307° |
| 2026-05-03 23:51 | -22.70803 | -45.08092 | 14255 ft | 182 kts | 307° |
| 2026-05-03 23:51 | -22.69968 | -45.09132 | 14255 ft | 182 kts | 307° |
| 2026-05-03 23:51 | -22.69138 | -45.10168 | 14256 ft | 182 kts | 307° |
| 2026-05-03 23:52 | -22.68307 | -45.11205 | 14261 ft | 182 kts | 307° |
| 2026-05-03 23:52 | -22.67485 | -45.12231 | 14259 ft | 182 kts | 307° |
| 2026-05-03 23:52 | -22.66653 | -45.13267 | 14256 ft | 182 kts | 307° |
| 2026-05-03 23:52 | -22.65820 | -45.14305 | 14257 ft | 183 kts | 307° |
| 2026-05-03 23:53 | -22.64987 | -45.15344 | 14258 ft | 182 kts | 307° |
| 2026-05-03 23:53 | -22.64156 | -45.16379 | 14255 ft | 182 kts | 307° |
| 2026-05-03 23:53 | -22.63326 | -45.17413 | 14255 ft | 182 kts | 307° |
| 2026-05-03 23:53 | -22.62494 | -45.18448 | 14256 ft | 182 kts | 307° |
| 2026-05-03 23:54 | -22.61663 | -45.19484 | 14254 ft | 182 kts | 308° |
| 2026-05-03 23:54 | -22.60834 | -45.20516 | 14253 ft | 182 kts | 307° |
| 2026-05-03 23:54 | -22.60001 | -45.21552 | 14254 ft | 182 kts | 307° |
| 2026-05-03 23:54 | -22.59168 | -45.22588 | 14250 ft | 183 kts | 308° |
| 2026-05-03 23:55 | -22.58334 | -45.23626 | 14256 ft | 183 kts | 308° |
| 2026-05-03 23:55 | -22.57510 | -45.24652 | 14249 ft | 183 kts | 308° |
| 2026-05-03 23:55 | -22.56673 | -45.25693 | 14248 ft | 183 kts | 308° |
| 2026-05-03 23:55 | -22.55838 | -45.26731 | 14249 ft | 183 kts | 308° |
| 2026-05-03 23:56 | -22.55004 | -45.27766 | 14245 ft | 182 kts | 307° |
| 2026-05-03 23:56 | -22.54175 | -45.28798 | 14247 ft | 182 kts | 307° |
| 2026-05-03 23:56 | -22.53345 | -45.29828 | 14242 ft | 181 kts | 307° |
| 2026-05-03 23:56 | -22.52518 | -45.30857 | 14243 ft | 181 kts | 307° |
| 2026-05-03 23:57 | -22.51691 | -45.31885 | 14241 ft | 181 kts | 307° |
| 2026-05-03 23:57 | -22.50863 | -45.32912 | 14241 ft | 181 kts | 308° |
| 2026-05-03 23:57 | -22.50039 | -45.33936 | 14241 ft | 181 kts | 308° |
| 2026-05-03 23:57 | -22.49212 | -45.34961 | 14240 ft | 181 kts | 308° |
| 2026-05-03 23:58 | -22.48386 | -45.35988 | 14238 ft | 180 kts | 308° |
| 2026-05-03 23:58 | -22.47562 | -45.37009 | 14238 ft | 180 kts | 308° |
| 2026-05-03 23:58 | -22.46737 | -45.38033 | 14236 ft | 180 kts | 308° |
| 2026-05-03 23:58 | -22.45915 | -45.39053 | 14232 ft | 180 kts | 308° |
| 2026-05-03 23:59 | -22.45092 | -45.40075 | 14235 ft | 181 kts | 307° |
| 2026-05-03 23:59 | -22.44263 | -45.41101 | 14239 ft | 181 kts | 307° |
| 2026-05-03 23:59 | -22.43434 | -45.42129 | 14233 ft | 182 kts | 307° |
| 2026-05-03 23:59 | -22.42602 | -45.43162 | 14231 ft | 182 kts | 307° |
| 2026-05-04 00:00 | -22.41769 | -45.44192 | 14232 ft | 182 kts | 307° |
| 2026-05-04 00:00 | -22.40942 | -45.45218 | 14230 ft | 181 kts | 307° |
| 2026-05-04 00:00 | -22.40123 | -45.46231 | 14231 ft | 181 kts | 307° |
| 2026-05-04 00:00 | -22.39285 | -45.47270 | 14229 ft | 181 kts | 307° |
| 2026-05-04 00:01 | -22.38469 | -45.48281 | 14228 ft | 181 kts | 307° |
| 2026-05-04 00:01 | -22.37645 | -45.49300 | 14222 ft | 180 kts | 307° |
| 2026-05-04 00:01 | -22.36821 | -45.50321 | 14226 ft | 180 kts | 307° |
| 2026-05-04 00:01 | -22.35998 | -45.51339 | 14224 ft | 180 kts | 307° |
| 2026-05-04 00:02 | -22.35174 | -45.52359 | 14221 ft | 180 kts | 307° |
| 2026-05-04 00:02 | -22.34349 | -45.53380 | 14223 ft | 180 kts | 307° |
| 2026-05-04 00:02 | -22.33523 | -45.54400 | 14221 ft | 180 kts | 307° |
| 2026-05-04 00:02 | -22.32698 | -45.55421 | 14221 ft | 180 kts | 307° |
| 2026-05-04 00:03 | -22.31875 | -45.56437 | 14212 ft | 180 kts | 307° |
| 2026-05-04 00:03 | -22.31054 | -45.57453 | 14211 ft | 179 kts | 307° |
| 2026-05-04 00:03 | -22.30232 | -45.58469 | 14212 ft | 179 kts | 307° |
| 2026-05-04 00:03 | -22.29412 | -45.59482 | 14211 ft | 179 kts | 307° |
| 2026-05-04 00:04 | -22.28591 | -45.60497 | 14216 ft | 179 kts | 307° |
| 2026-05-04 00:04 | -22.27770 | -45.61511 | 14216 ft | 179 kts | 307° |
| 2026-05-04 00:04 | -22.26948 | -45.62525 | 14210 ft | 179 kts | 308° |
| 2026-05-04 00:04 | -22.26130 | -45.63535 | 14214 ft | 179 kts | 307° |
| 2026-05-04 00:05 | -22.25310 | -45.64548 | 14205 ft | 179 kts | 308° |
| 2026-05-04 00:05 | -22.24491 | -45.65559 | 14207 ft | 179 kts | 307° |
| 2026-05-04 00:05 | -22.23671 | -45.66570 | 14204 ft | 178 kts | 307° |
| 2026-05-04 00:05 | -22.22858 | -45.67571 | 14210 ft | 177 kts | 307° |
| 2026-05-04 00:06 | -22.22044 | -45.68577 | 14204 ft | 178 kts | 307° |
| 2026-05-04 00:06 | -22.21240 | -45.69570 | 14201 ft | 179 kts | 308° |
| 2026-05-04 00:06 | -22.20420 | -45.70580 | 14203 ft | 179 kts | 308° |
| 2026-05-04 00:06 | -22.19602 | -45.71587 | 14198 ft | 178 kts | 307° |
| 2026-05-04 00:07 | -22.18793 | -45.72584 | 14198 ft | 177 kts | 307° |
| 2026-05-04 00:07 | -22.17982 | -45.73585 | 14198 ft | 177 kts | 307° |
| 2026-05-04 00:07 | -22.17171 | -45.74585 | 14199 ft | 178 kts | 307° |
| 2026-05-04 00:07 | -22.16351 | -45.75593 | 14198 ft | 179 kts | 307° |
| 2026-05-04 00:08 | -22.15534 | -45.76600 | 14196 ft | 179 kts | 308° |
| 2026-05-04 00:08 | -22.14711 | -45.77614 | 14201 ft | 179 kts | 308° |
| 2026-05-04 00:08 | -22.13890 | -45.78624 | 14199 ft | 179 kts | 308° |
| 2026-05-04 00:08 | -22.13070 | -45.79635 | 14198 ft | 179 kts | 308° |
| 2026-05-04 00:09 | -22.12244 | -45.80650 | 14193 ft | 180 kts | 308° |
| 2026-05-04 00:09 | -22.11420 | -45.81664 | 14192 ft | 180 kts | 308° |
| 2026-05-04 00:09 | -22.10596 | -45.82676 | 14192 ft | 180 kts | 308° |
| 2026-05-04 00:09 | -22.09773 | -45.83690 | 14193 ft | 180 kts | 308° |
| 2026-05-04 00:10 | -22.08948 | -45.84704 | 14193 ft | 180 kts | 308° |
| 2026-05-04 00:10 | -22.08124 | -45.85717 | 14191 ft | 180 kts | 307° |
| 2026-05-04 00:10 | -22.07300 | -45.86730 | 14193 ft | 180 kts | 307° |
| 2026-05-04 00:10 | -22.06476 | -45.87743 | 14192 ft | 180 kts | 308° |
| 2026-05-04 00:11 | -22.05652 | -45.88755 | 14193 ft | 180 kts | 308° |
| 2026-05-04 00:11 | -22.04828 | -45.89768 | 14189 ft | 179 kts | 308° |
| 2026-05-04 00:11 | -22.04017 | -45.90763 | 14191 ft | 179 kts | 308° |
| 2026-05-04 00:11 | -22.03196 | -45.91773 | 14192 ft | 179 kts | 308° |
| 2026-05-04 00:12 | -22.02372 | -45.92783 | 14188 ft | 179 kts | 308° |
| 2026-05-04 00:12 | -22.01549 | -45.93793 | 14192 ft | 180 kts | 308° |
| 2026-05-04 00:12 | -22.00725 | -45.94805 | 14190 ft | 179 kts | 308° |
| 2026-05-04 00:12 | -21.99903 | -45.95814 | 14187 ft | 179 kts | 308° |
| 2026-05-04 00:13 | -21.99084 | -45.96818 | 14188 ft | 179 kts | 308° |
| 2026-05-04 00:13 | -21.98262 | -45.97827 | 14189 ft | 179 kts | 308° |
| 2026-05-04 00:13 | -21.97437 | -45.98838 | 14189 ft | 180 kts | 308° |
| 2026-05-04 00:13 | -21.96611 | -45.99852 | 14186 ft | 180 kts | 308° |
| 2026-05-04 00:14 | -21.95785 | -46.00864 | 14187 ft | 180 kts | 308° |
| 2026-05-04 00:14 | -21.94960 | -46.01876 | 14188 ft | 180 kts | 308° |
| 2026-05-04 00:14 | -21.94133 | -46.02889 | 14189 ft | 180 kts | 308° |
| 2026-05-04 00:14 | -21.93307 | -46.03900 | 14187 ft | 180 kts | 308° |
| 2026-05-04 00:15 | -21.92480 | -46.04913 | 14186 ft | 180 kts | 308° |
| 2026-05-04 00:15 | -21.91650 | -46.05930 | 14187 ft | 180 kts | 308° |
| 2026-05-04 00:15 | -21.90822 | -46.06943 | 14184 ft | 180 kts | 308° |
| 2026-05-04 00:15 | -21.90005 | -46.07944 | 14181 ft | 180 kts | 308° |
| 2026-05-04 00:16 | -21.89177 | -46.08958 | 14184 ft | 180 kts | 308° |
| 2026-05-04 00:16 | -21.88350 | -46.09970 | 14183 ft | 180 kts | 308° |
| 2026-05-04 00:16 | -21.87522 | -46.10982 | 14181 ft | 180 kts | 308° |
| 2026-05-04 00:16 | -21.86697 | -46.11992 | 14183 ft | 180 kts | 308° |
| 2026-05-04 00:17 | -21.85870 | -46.13004 | 14184 ft | 180 kts | 308° |
| 2026-05-04 00:17 | -21.85044 | -46.14014 | 14181 ft | 180 kts | 308° |
| 2026-05-04 00:17 | -21.84215 | -46.15028 | 14183 ft | 180 kts | 308° |
| 2026-05-04 00:17 | -21.83389 | -46.16037 | 14182 ft | 180 kts | 308° |
| 2026-05-04 00:18 | -21.82561 | -46.17048 | 14178 ft | 180 kts | 308° |
| 2026-05-04 00:18 | -21.81731 | -46.18063 | 14179 ft | 180 kts | 308° |
| 2026-05-04 00:18 | -21.80903 | -46.19075 | 14178 ft | 180 kts | 308° |
| 2026-05-04 00:18 | -21.80074 | -46.20087 | 14178 ft | 180 kts | 308° |
| 2026-05-04 00:19 | -21.79249 | -46.21094 | 14177 ft | 180 kts | 308° |
| 2026-05-04 00:19 | -21.78420 | -46.22107 | 14180 ft | 180 kts | 308° |
| 2026-05-04 00:19 | -21.77589 | -46.23121 | 14180 ft | 180 kts | 308° |
| 2026-05-04 00:19 | -21.76758 | -46.24136 | 14180 ft | 180 kts | 308° |
| 2026-05-04 00:20 | -21.75928 | -46.25149 | 14181 ft | 181 kts | 308° |
| 2026-05-04 00:20 | -21.75097 | -46.26162 | 14176 ft | 180 kts | 308° |
| 2026-05-04 00:20 | -21.74268 | -46.27174 | 14173 ft | 180 kts | 308° |
| 2026-05-04 00:20 | -21.73437 | -46.28188 | 14174 ft | 180 kts | 308° |
| 2026-05-04 00:21 | -21.72607 | -46.29199 | 14173 ft | 180 kts | 308° |
| 2026-05-04 00:21 | -21.71779 | -46.30208 | 14171 ft | 180 kts | 308° |
| 2026-05-04 00:21 | -21.70951 | -46.31219 | 14172 ft | 181 kts | 308° |
| 2026-05-04 00:21 | -21.70119 | -46.32232 | 14170 ft | 181 kts | 308° |
| 2026-05-04 00:22 | -21.69288 | -46.33245 | 14172 ft | 181 kts | 308° |
| 2026-05-04 00:22 | -21.68455 | -46.34259 | 14169 ft | 181 kts | 308° |
| 2026-05-04 00:22 | -21.67634 | -46.35259 | 14169 ft | 181 kts | 308° |
| 2026-05-04 00:22 | -21.66802 | -46.36272 | 14169 ft | 181 kts | 308° |
| 2026-05-04 00:23 | -21.65974 | -46.37283 | 14169 ft | 180 kts | 307° |
| 2026-05-04 00:23 | -21.65345 | -46.38426 | 14167 ft | 178 kts | 290° |
| 2026-05-04 00:23 | -21.64900 | -46.39664 | 14167 ft | 178 kts | 290° |
| 2026-05-04 00:23 | -21.64445 | -46.40898 | 14169 ft | 178 kts | 290° |
| 2026-05-04 00:24 | -21.63990 | -46.42136 | 14168 ft | 178 kts | 290° |
| 2026-05-04 00:24 | -21.63537 | -46.43374 | 14169 ft | 178 kts | 290° |
| 2026-05-04 00:24 | -21.63085 | -46.44609 | 14168 ft | 178 kts | 290° |
| 2026-05-04 00:24 | -21.62631 | -46.45845 | 14168 ft | 178 kts | 290° |
| 2026-05-04 00:25 | -21.62179 | -46.47082 | 14167 ft | 178 kts | 290° |
| 2026-05-04 00:25 | -21.61725 | -46.48319 | 14166 ft | 178 kts | 290° |
| 2026-05-04 00:25 | -21.61272 | -46.49554 | 14167 ft | 177 kts | 290° |
| 2026-05-04 00:25 | -21.60819 | -46.50789 | 14165 ft | 177 kts | 290° |
| 2026-05-04 00:26 | -21.60366 | -46.52023 | 14164 ft | 177 kts | 290° |
| 2026-05-04 00:26 | -21.59914 | -46.53257 | 14164 ft | 177 kts | 290° |
| 2026-05-04 00:26 | -21.59461 | -46.54489 | 14159 ft | 177 kts | 290° |
| 2026-05-04 00:26 | -21.59009 | -46.55719 | 14161 ft | 178 kts | 290° |
| 2026-05-04 00:27 | -21.58555 | -46.56957 | 14159 ft | 178 kts | 290° |
| 2026-05-04 00:27 | -21.58102 | -46.58189 | 14160 ft | 178 kts | 290° |
| 2026-05-04 00:27 | -21.57550 | -46.59385 | 14156 ft | 179 kts | 300° |
| 2026-05-04 00:27 | -21.56878 | -46.60509 | 14159 ft | 179 kts | 300° |
| 2026-05-04 00:28 | -21.56222 | -46.61648 | 14155 ft | 179 kts | 298° |
| 2026-05-04 00:28 | -21.55580 | -46.62797 | 14157 ft | 179 kts | 298° |
| 2026-05-04 00:28 | -21.54940 | -46.63947 | 14151 ft | 179 kts | 298° |
| 2026-05-04 00:28 | -21.54300 | -46.65095 | 14155 ft | 179 kts | 298° |
| 2026-05-04 00:29 | -21.53662 | -46.66239 | 14152 ft | 179 kts | 298° |
| 2026-05-04 00:29 | -21.53029 | -46.67373 | 14148 ft | 179 kts | 298° |
| 2026-05-04 00:29 | -21.52389 | -46.68520 | 14149 ft | 179 kts | 298° |
| 2026-05-04 00:29 | -21.51748 | -46.69667 | 14145 ft | 179 kts | 298° |
| 2026-05-04 00:30 | -21.51107 | -46.70816 | 14145 ft | 179 kts | 298° |
| 2026-05-04 00:30 | -21.50464 | -46.71967 | 14144 ft | 179 kts | 298° |
| 2026-05-04 00:30 | -21.49821 | -46.73117 | 14145 ft | 180 kts | 298° |
| 2026-05-04 00:30 | -21.49180 | -46.74264 | 14147 ft | 179 kts | 298° |
| 2026-05-04 00:31 | -21.48539 | -46.75412 | 14144 ft | 179 kts | 298° |
| 2026-05-04 00:31 | -21.47897 | -46.76561 | 14142 ft | 179 kts | 298° |
| 2026-05-04 00:31 | -21.47255 | -46.77708 | 14145 ft | 179 kts | 298° |
| 2026-05-04 00:31 | -21.46613 | -46.78856 | 14143 ft | 180 kts | 298° |
| 2026-05-04 00:32 | -21.46187 | -46.79618 | 14141 ft | 180 kts | 298° |
| 2026-05-04 00:32 | -21.45543 | -46.80768 | 14141 ft | 180 kts | 298° |
| 2026-05-04 00:32 | -21.44900 | -46.81917 | 14139 ft | 179 kts | 298° |
| 2026-05-04 00:32 | -21.44257 | -46.83066 | 14142 ft | 180 kts | 299° |
| 2026-05-04 00:33 | -21.43614 | -46.84216 | 14139 ft | 180 kts | 298° |
| 2026-05-04 00:33 | -21.42324 | -46.86519 | 14139 ft | 180 kts | 298° |
| 2026-05-04 00:33 | -21.41678 | -46.87672 | 14139 ft | 181 kts | 299° |
| 2026-05-04 00:34 | -21.41030 | -46.88828 | 14136 ft | 181 kts | 298° |
| 2026-05-04 00:34 | -21.40384 | -46.89980 | 14138 ft | 180 kts | 298° |
| 2026-05-04 00:34 | -21.39739 | -46.91132 | 14139 ft | 180 kts | 299° |
| 2026-05-04 00:34 | -21.39093 | -46.92285 | 14137 ft | 180 kts | 298° |
| 2026-05-04 00:35 | -21.38446 | -46.93439 | 14137 ft | 180 kts | 298° |
| 2026-05-04 00:35 | -21.37799 | -46.94592 | 14132 ft | 180 kts | 299° |
| 2026-05-04 00:35 | -21.37152 | -46.95744 | 14136 ft | 180 kts | 299° |
| 2026-05-04 00:35 | -21.36505 | -46.96898 | 14136 ft | 180 kts | 299° |
| 2026-05-04 00:36 | -21.35866 | -46.98035 | 14138 ft | 181 kts | 299° |
| 2026-05-04 00:36 | -21.35209 | -46.99206 | 14135 ft | 181 kts | 299° |
| 2026-05-04 00:36 | -21.34569 | -47.00346 | 14135 ft | 181 kts | 299° |
| 2026-05-04 00:36 | -21.33921 | -47.01502 | 14135 ft | 181 kts | 299° |
| 2026-05-04 00:37 | -21.33272 | -47.02657 | 14132 ft | 181 kts | 299° |
| 2026-05-04 00:37 | -21.32623 | -47.03812 | 14133 ft | 181 kts | 299° |
| 2026-05-04 00:37 | -21.31974 | -47.04967 | 14134 ft | 181 kts | 299° |
| 2026-05-04 00:37 | -21.31324 | -47.06123 | 14131 ft | 181 kts | 299° |
| 2026-05-04 00:38 | -21.30674 | -47.07279 | 14131 ft | 181 kts | 299° |
| 2026-05-04 00:38 | -21.30023 | -47.08437 | 14125 ft | 181 kts | 298° |
| 2026-05-04 00:38 | -21.29374 | -47.09591 | 14128 ft | 180 kts | 299° |
| 2026-05-04 00:38 | -21.28725 | -47.10744 | 14127 ft | 181 kts | 299° |
| 2026-05-04 00:39 | -21.28075 | -47.11899 | 14129 ft | 181 kts | 299° |
| 2026-05-04 00:39 | -21.27424 | -47.13057 | 14127 ft | 181 kts | 299° |
| 2026-05-04 00:39 | -21.26781 | -47.14198 | 14124 ft | 181 kts | 299° |
| 2026-05-04 00:39 | -21.26129 | -47.15357 | 14124 ft | 181 kts | 299° |
| 2026-05-04 00:40 | -21.25477 | -47.16514 | 14126 ft | 181 kts | 299° |
| 2026-05-04 00:40 | -21.24825 | -47.17672 | 14126 ft | 181 kts | 299° |
| 2026-05-04 00:40 | -21.24174 | -47.18828 | 14122 ft | 182 kts | 299° |
| 2026-05-04 00:40 | -21.23520 | -47.19988 | 14123 ft | 182 kts | 300° |
| 2026-05-04 00:41 | -21.22866 | -47.21149 | 14125 ft | 182 kts | 299° |
| 2026-05-04 00:41 | -21.22212 | -47.22309 | 14122 ft | 182 kts | 299° |
| 2026-05-04 00:41 | -21.21556 | -47.23472 | 14121 ft | 182 kts | 299° |
| 2026-05-04 00:41 | -21.20901 | -47.24635 | 14123 ft | 182 kts | 299° |
| 2026-05-04 00:42 | -21.20244 | -47.25799 | 14125 ft | 183 kts | 299° |
| 2026-05-04 00:42 | -21.19585 | -47.26964 | 14128 ft | 183 kts | 299° |
| 2026-05-04 00:42 | -21.18927 | -47.28133 | 14120 ft | 183 kts | 300° |
| 2026-05-04 00:42 | -21.18267 | -47.29302 | 14104 ft | 184 kts | 299° |
| 2026-05-04 00:43 | -21.17594 | -47.30496 | 13880 ft | 195 kts | 300° |
| 2026-05-04 00:43 | -21.16879 | -47.31763 | 13608 ft | 202 kts | 300° |
| 2026-05-04 00:43 | -21.16150 | -47.33051 | 13332 ft | 207 kts | 300° |
| 2026-05-04 00:43 | -21.15399 | -47.34380 | 13056 ft | 210 kts | 300° |
| 2026-05-04 00:44 | -21.14638 | -47.35727 | 12776 ft | 213 kts | 300° |
| 2026-05-04 00:44 | -21.13868 | -47.37090 | 12490 ft | 214 kts | 300° |
| 2026-05-04 00:44 | -21.13093 | -47.38459 | 12206 ft | 216 kts | 300° |
| 2026-05-04 00:44 | -21.12312 | -47.39841 | 11915 ft | 218 kts | 301° |
| 2026-05-04 00:45 | -21.11525 | -47.41232 | 11630 ft | 219 kts | 301° |
| 2026-05-04 00:45 | -21.10734 | -47.42630 | 11343 ft | 220 kts | 301° |
| 2026-05-04 00:45 | -21.09938 | -47.44037 | 11052 ft | 221 kts | 301° |
| 2026-05-04 00:45 | -21.09138 | -47.45451 | 10758 ft | 222 kts | 301° |
| 2026-05-04 00:46 | -21.08334 | -47.46869 | 10465 ft | 223 kts | 301° |
| 2026-05-04 00:46 | -21.07528 | -47.48293 | 10175 ft | 224 kts | 302° |
| 2026-05-04 00:46 | -21.06721 | -47.49719 | 9866 ft | 224 kts | 302° |
| 2026-05-04 00:46 | -21.05913 | -47.51144 | 9558 ft | 224 kts | 302° |
| 2026-05-04 00:47 | -21.05105 | -47.52569 | 9258 ft | 223 kts | 302° |
| 2026-05-04 00:47 | -21.04300 | -47.53989 | 8964 ft | 223 kts | 303° |
| 2026-05-04 00:47 | -21.03492 | -47.55413 | 8666 ft | 224 kts | 303° |
| 2026-05-04 00:47 | -21.02683 | -47.56840 | 8367 ft | 224 kts | 303° |
| 2026-05-04 00:48 | -21.01874 | -47.58265 | 8080 ft | 224 kts | 303° |
| 2026-05-04 00:48 | -21.01076 | -47.59670 | 7793 ft | 224 kts | 303° |
| 2026-05-04 00:48 | -21.00270 | -47.61094 | 7499 ft | 224 kts | 303° |
| 2026-05-04 00:48 | -20.99459 | -47.62520 | 7200 ft | 224 kts | 304° |
| 2026-05-04 00:49 | -20.98651 | -47.63941 | 6903 ft | 223 kts | 303° |
| 2026-05-04 00:49 | -20.97844 | -47.65364 | 6608 ft | 223 kts | 303° |
| 2026-05-04 00:49 | -20.97039 | -47.66781 | 6305 ft | 222 kts | 303° |
| 2026-05-04 00:49 | -20.96235 | -47.68194 | 6005 ft | 222 kts | 304° |
| 2026-05-04 00:50 | -20.95434 | -47.69606 | 5714 ft | 222 kts | 303° |
| 2026-05-04 00:50 | -20.94643 | -47.71016 | 5422 ft | 221 kts | 300° |
| 2026-05-04 00:50 | -20.94202 | -47.72585 | 5127 ft | 221 kts | 277° |
| 2026-05-04 00:50 | -20.94259 | -47.74197 | 4930 ft | 217 kts | 257° |
| 2026-05-04 00:51 | -20.94668 | -47.75695 | 4734 ft | 197 kts | 252° |
| 2026-05-04 00:51 | -20.95035 | -47.77012 | 4558 ft | 172 kts | 250° |
| 2026-05-04 00:51 | -20.95364 | -47.78170 | 4415 ft | 155 kts | 249° |
| 2026-05-04 00:51 | -20.95663 | -47.79226 | 4289 ft | 144 kts | 249° |
| 2026-05-04 00:52 | -20.95948 | -47.80228 | 4174 ft | 138 kts | 249° |
| 2026-05-04 00:52 | -20.96265 | -47.81222 | 3986 ft | 144 kts | 235° |
| 2026-05-04 00:52 | -20.96950 | -47.81951 | 3822 ft | 136 kts | 205° |
| 2026-05-04 00:52 | -20.97758 | -47.82241 | 3807 ft | 110 kts | 178° |
| 2026-05-04 00:53 | -20.98482 | -47.82182 | 3814 ft | 105 kts | 159° |
| 2026-05-04 00:53 | -20.99191 | -47.81951 | 3810 ft | 108 kts | 159° |
| 2026-05-04 00:53 | -20.99919 | -47.81720 | 3810 ft | 110 kts | 160° |
| 2026-05-04 00:53 | -21.00653 | -47.81485 | 3797 ft | 111 kts | 159° |
| 2026-05-04 00:54 | -21.01407 | -47.81243 | 3755 ft | 115 kts | 158° |
| 2026-05-04 00:54 | -21.02174 | -47.80997 | 3690 ft | 118 kts | 158° |
| 2026-05-04 00:54 | -21.02972 | -47.80742 | 3612 ft | 121 kts | 158° |
| 2026-05-04 00:54 | -21.03789 | -47.80480 | 3541 ft | 121 kts | 157° |
| 2026-05-04 00:55 | -21.04603 | -47.80218 | 3445 ft | 124 kts | 158° |
| 2026-05-04 00:55 | -21.05445 | -47.79948 | 3287 ft | 128 kts | 158° |
| 2026-05-04 00:55 | -21.06299 | -47.79676 | 3120 ft | 131 kts | 159° |
| 2026-05-04 00:55 | -21.07186 | -47.79394 | 2941 ft | 130 kts | 160° |
| 2026-05-04 00:56 | -21.08037 | -47.79123 | 2783 ft | 129 kts | 161° |
| 2026-05-04 00:56 | -21.08907 | -47.78845 | 2604 ft | 124 kts | 161° |
| 2026-05-04 00:56 | -21.09679 | -47.78600 | 2439 ft | 109 kts | 160° |
| 2026-05-04 00:56 | -21.10377 | -47.78371 | 2304 ft | 104 kts | 159° |
| 2026-05-04 00:57 | -21.11066 | -47.78133 | 2163 ft | 103 kts | 162° |
| 2026-05-04 00:57 | -21.11756 | -47.77923 | 2016 ft | 103 kts | 160° |
| 2026-05-04 00:57 | -21.12441 | -47.77713 | 1868 ft | 101 kts | 161° |
| 2026-05-04 00:57 | -21.13029 | -47.77525 | 1802 ft | 75 kts | 163° |
| 2026-05-04 00:58 | -21.13446 | -47.77396 | 1799 ft | 51 kts | 164° |
| 2026-05-04 00:58 | -21.13627 | -47.77359 | 1799 ft | 15 kts | 228° |
| 2026-05-04 00:58 | -21.13661 | -47.77456 | 1798 ft | 14 kts | 255° |
| 2026-05-04 00:58 | -21.13689 | -47.77557 | 1798 ft | 14 kts | 263° |
| 2026-05-04 00:59 | -21.13673 | -47.77620 | 1799 ft | 11 kts | 355° |
| 2026-05-04 00:59 | -21.13650 | -47.77596 | 1799 ft | 3 kts | 162° |
| 2026-05-04 00:59 | -21.13652 | -47.77595 | 1799 ft | 0 kts | 162° |